Arzew, Algeria

9:25 PM CET on January 25, 2015 (GMT +0100)
Es Senia | Change Station
CLOSE
Current Station
Airport
Location: Oran,
Elevation: 295 ft
Nearby Weather Stations

Elev 295 ft 35.63 °N, 0.60 °W | Updated 25 minutes ago

Partly Cloudy
Partly Cloudy
46 °F
Feels Like 46 °F
N
2
Wind Variable Wind from SE

Today
High -- | Low -- °F
--% Chance of Precip.
Yesterday
High -- | Low -- °F
Precip. -- in
8:06 AM 6:20 PM
Waxing Crescent, 35% visible
Pressure 30.24 in
Visibility 6.2 miles
Clouds Few 2000 ft
Dew Point 41 °F
Humidity 81%
Rainfall 0.00 in
Snow Depth Not available.
UV 0 out of 12
Pollen Not available.
Air Quality Not available.
Flu Activity Not available.
METAR DAOO 252000Z 14002KT 9999 FEW020 08/05 Q1024

More Conditions Fewer Conditions

Pressure 30.24 in
Visibility 6.2 miles
Clouds Few 2000 ft
Dew Point 41 °F
Humidity 81%
Rainfall 0.00 in
Snow Depth Not available.
UV 0 out of 12
Pollen Not available.
Air Quality Not available.
Flu Activity Not available.
METAR DAOO 252000Z 14002KT 9999 FEW020 08/05 Q1024

More Conditions Fewer Conditions

10-Day Weather Forecast

Almanac

Astronomy

Jan. 25, 2015 Rise Set
Actual Time
Civil Twilight
Nautical Twilight
Astronomical Twilight
Moon
Length of Visible Light
Length of Day
Tomorrow will be .
, % of the Moon is Illuminated

Today's Extremes

Country Highs Country Lows

Community

WunderPhotos

Upload Photos

1,790,038 photos uploaded!

WunderBlogs® & News

Nearby

Air Quality

  Air Quality AQ Index Pollutant
Not available.

Snow Depth

Station Depth Elevation

Earthquake Activity

City Distance Mag. Time & Date
Minimum magnitude displayed is 2.5.

Coastal Water Temperatures

Place Temperature

Nearby Weather Stations